Meteo Giornale » Osservazioni meteo Kazakhstan » Shymkent
ore: 23:30 - Osservazioni Meteo Shymkent
Lat. 42° 19' N Lon. 69° 42' E Alt. 552 metri s.l.m.
22 °C
Sereno
Temp. 24 Ore
22 °C
32 °C
Nord/Nord-Est
14.4 Km/h
Dew point -2 °C
Umidità 19 %
Visibilità 10 Km
Il sole sorge alle ore 05:46
Il sole tramonta alle ore 18:56
| Data e Ora | Cielo e Fenomeni | T °C | DP °C | Um. % | Pres. hPa | Vis. km | Vento km/h | |
|---|---|---|---|---|---|---|---|---|
| Ieri h: 23:30 | Sereno | 22 | -2 | 19 | 1013 | 10 | N/NE 14.4 | |
| Ieri h: 23:00 | Sereno | 22 | -2 | 19 | 1013 | 10 | N/NE 14.4 | |
| Ieri h: 22:30 | Sereno | 23 | -2 | 18 | 1014 | 10 | N/NE 14.4 | |
| Ieri h: 22:00 | Sereno | 23 | -2 | 18 | 1013 | 10 | NE 14.4 | |
| Ieri h: 21:30 | Sereno | 23 | -2 | 18 | 1013 | 10 | NE 21.6 | |
| Ieri h: 21:00 | Sereno | 24 | 1 | 22 | 1013 | 10 | N/NE 18 | |
| Ieri h: 20:30 | Sereno | 25 | 4 | 25 | 1013 | 10 | N/NE 14.4 | |
| Ieri h: 20:00 | Sereno | 25 | 0 | 19 | 1013 | 10 | N 14.4 | |
| Ieri h: 19:30 | Sereno | 26 | 0 | 18 | 1012 | 10 | N 18 | |
| Ieri h: 19:00 | Sereno | 27 | 0 | 17 | 1012 | 10 | N 18 | |
| Ieri h: 18:30 | Sereno | 28 | 3 | 20 | 1012 | 10 | N 10.8 | |
| Ieri h: 18:00 | Sereno | 29 | 5 | 21 | 1012 | 10 | N/NE 14.4 | |
| Ieri h: 17:30 | Sereno | 29 | 5 | 21 | 1012 | 10 | N 14.4 | |
| Ieri h: 17:00 | Sereno | 30 | 5 | 20 | 1012 | 10 | N 14.4 | |
| Ieri h: 16:30 | Sereno | 30 | 5 | 20 | 1012 | 10 | N/NO 14.4 | |
| Ieri h: 16:00 | Poco Nuvoloso | 31 | 5 | 19 | 1012 | 10 | N 25.2 | |
| Ieri h: 15:30 | Poco Nuvoloso | 31 | 2 | 15 | 1012 | 10 | NO 21.6 | |
| Ieri h: 15:00 | Poco Nuvoloso | 32 | 3 | 15 | 1011 | 10 | NO 18 | |
| Ieri h: 14:30 | Nuvoloso | 32 | 3 | 15 | 1011 | 10 | O/NO 25.2 | |
| Ieri h: 14:00 | Nuvoloso | 32 | 5 | 18 | 1011 | 10 | N 18 | |
| Ieri h: 13:30 | Nuvoloso | 32 | 7 | 21 | 1011 | 10 | O/NO 18 | |
| Ieri h: 13:00 | Nuvoloso | 30 | 8 | 25 | 1012 | 10 | N/NO 14.4 | |
| Ieri h: 12:30 | Nuvoloso | 31 | 8 | 23 | 1011 | 10 | O/NO 14.4 | |
| Ieri h: 12:00 | Nuvoloso | 30 | 9 | 27 | 1011 | 10 | O/NO 18 | |
| Ieri h: 11:30 | Nuvoloso | 29 | 10 | 30 | 1011 | 10 | NO 14.4 | |
| Ieri h: 11:00 | Nuvoloso | 28 | 11 | 34 | 1011 | 10 | O/NO 18 | |
| Ieri h: 10:30 | Nuvoloso | 29 | 11 | 32 | 1011 | 10 | O/NO 14.4 | |
| Ieri h: 10:00 | Poco Nuvoloso | 27 | 10 | 34 | 1011 | 10 | NO 14.4 | |
| Ieri h: 09:30 | Sereno | 27 | 10 | 34 | 1010 | 10 | O/NO 10.8 | |
| Ieri h: 09:00 | Sereno | 26 | 10 | 36 | 1010 | 10 | O/NO 18 | |
| Ieri h: 08:30 | Sereno | 26 | 10 | 36 | 1010 | 10 | O/NO 14.4 | |
| Ieri h: 08:00 | Sereno | 26 | 9 | 34 | 1009 | 10 | O/SO 14.4 | |
| Ieri h: 07:30 | Sereno | 25 | 10 | 38 | 1009 | 10 | SO 10.8 | |
| Ieri h: 07:00 | Sereno | 23 | 9 | 40 | 1009 | 10 | O 14.4 | |
| Ieri h: 06:30 | Sereno | 24 | 9 | 38 | 1008 | 10 | N 7.2 | |
| Ieri h: 06:00 | Sereno | 22 | 9 | 43 | 1008 | 10 | SE 14.4 | |
| Ieri h: 05:30 | Sereno | 23 | 9 | 40 | 1008 | 10 | N 7.2 | |
| Ieri h: 05:00 | Sereno | 23 | 9 | 40 | 1007 | 10 | N 7.2 | |
| Ieri h: 04:30 | Sereno | 25 | 9 | 36 | 1007 | 10 | N 7.2 | |
| Ieri h: 04:00 | Sereno | 24 | 9 | 38 | 1007 | 10 | N 7.2 | |
| Ieri h: 03:30 | Sereno | 25 | 9 | 36 | 1007 | 10 | N 0 | |
| Ieri h: 03:00 | Sereno | 25 | 9 | 36 | 1007 | 10 | O/SO 10.8 | |
| Ieri h: 02:30 | Sereno | 26 | 9 | 34 | 1006 | 10 | SE 10.8 | |
| Ieri h: 02:00 | Sereno | 26 | 9 | 34 | 1007 | 10 | SE 14.4 | |
| Ieri h: 01:30 | Sereno | 25 | 10 | 38 | 1007 | 10 | SE 14.4 | |
| Ieri h: 01:00 | Sereno | 27 | 10 | 34 | 1007 | 10 | SE 10.8 | |



